createdAt,value
2018-07-20T00:00:47.012Z,5.17
2018-07-20T00:03:15.215Z,5.40
2018-07-20T00:05:44.731Z,5.50
2018-07-20T00:08:13.123Z,5.27
2018-07-20T00:10:41.402Z,4.90
2018-07-20T00:13:09.650Z,4.73
2018-07-20T00:15:37.869Z,5.77
2018-07-20T00:18:06.552Z,6.10
2018-07-20T00:20:34.759Z,6.63
2018-07-20T00:23:03.045Z,5.20
2018-07-20T00:25:31.298Z,6.10
2018-07-20T00:27:59.504Z,5.33
2018-07-20T00:30:27.816Z,4.63
2018-07-20T00:32:56.018Z,5.20
2018-07-20T00:35:24.338Z,5.30
2018-07-20T00:37:52.586Z,5.60
2018-07-20T00:40:20.761Z,5.50
2018-07-20T00:42:49.032Z,5.30
2018-07-20T00:45:17.273Z,5.50
2018-07-20T00:47:45.549Z,5.97
2018-07-20T00:50:13.773Z,5.40
2018-07-20T00:52:42.121Z,5.87
2018-07-20T00:55:10.485Z,5.20
2018-07-20T00:57:38.692Z,5.10
2018-07-20T01:00:07.009Z,5.00
2018-07-20T01:02:35.245Z,4.90
2018-07-20T01:05:03.522Z,5.83
2018-07-20T01:07:31.800Z,5.00
2018-07-20T01:10:00.016Z,5.30
2018-07-20T01:12:28.252Z,4.97
2018-07-20T01:14:56.509Z,5.13
2018-07-20T01:17:24.715Z,4.57
2018-07-20T01:19:53.091Z,5.40
2018-07-20T01:22:21.316Z,5.70
2018-07-20T01:24:49.582Z,5.40
2018-07-20T01:27:17.769Z,4.57
2018-07-20T01:29:46.006Z,4.47
2018-07-20T01:32:14.262Z,5.20
2018-07-20T01:34:42.470Z,5.37
2018-07-20T01:37:10.740Z,5.40
2018-07-20T01:39:39.021Z,5.20
2018-07-20T01:42:07.268Z,4.43
2018-07-20T01:44:35.504Z,5.47
2018-07-20T01:47:03.724Z,5.20
2018-07-20T01:49:32.041Z,4.73
2018-07-20T01:52:00.251Z,5.20
2018-07-20T01:54:28.577Z,5.83
2018-07-20T01:56:56.846Z,5.90
2018-07-20T01:59:25.084Z,5.17
2018-07-20T02:01:53.342Z,6.10
2018-07-20T02:04:21.560Z,5.83
2018-07-20T02:06:49.814Z,5.30
2018-07-20T02:09:18.051Z,5.07
2018-07-20T02:11:46.254Z,5.60
2018-07-20T02:14:14.500Z,4.83
2018-07-20T02:16:42.707Z,5.50
2018-07-20T02:19:10.951Z,5.10
2018-07-20T02:21:39.194Z,4.70
2018-07-20T02:24:07.549Z,5.23
2018-07-20T02:26:35.873Z,5.80
2018-07-20T02:29:04.102Z,4.93
2018-07-20T02:31:32.349Z,6.27
2018-07-20T02:34:00.611Z,5.67
2018-07-20T02:36:28.839Z,5.60
2018-07-20T02:38:57.064Z,6.23
2018-07-20T02:41:25.409Z,5.20
2018-07-20T02:43:53.669Z,5.47
2018-07-20T02:46:21.914Z,6.47
2018-07-20T02:48:50.138Z,5.87
2018-07-20T02:51:18.445Z,5.13
2018-07-20T02:53:46.685Z,6.10
2018-07-20T02:56:14.921Z,6.03
2018-07-20T02:58:43.174Z,4.97
2018-07-20T03:01:11.409Z,5.10
2018-07-20T03:03:39.705Z,5.77
2018-07-20T03:06:08.071Z,5.53
2018-07-20T03:08:36.343Z,5.50
2018-07-20T03:11:04.569Z,6.23
2018-07-20T03:13:32.773Z,5.70
2018-07-20T03:16:01.005Z,5.40
2018-07-20T03:18:29.283Z,5.40
2018-07-20T03:20:57.551Z,5.83
2018-07-20T03:23:25.799Z,6.40
2018-07-20T03:25:54.020Z,5.37
2018-07-20T03:28:22.257Z,6.00
2018-07-20T03:30:50.542Z,5.40
2018-07-20T03:33:18.782Z,6.70
2018-07-20T03:35:47.031Z,6.10
2018-07-20T03:38:15.412Z,5.60
2018-07-20T03:40:43.693Z,6.37
2018-07-20T03:43:12.017Z,5.87
2018-07-20T03:45:40.254Z,6.20
2018-07-20T03:48:08.472Z,5.20
2018-07-20T03:50:36.738Z,5.30
2018-07-20T03:53:05.017Z,5.67
2018-07-20T03:55:33.217Z,6.10
2018-07-20T03:58:01.468Z,5.63
2018-07-20T04:00:29.685Z,5.60
2018-07-20T04:02:57.957Z,6.17
2018-07-20T04:05:26.200Z,5.30
2018-07-20T04:07:54.380Z,6.33
2018-07-20T04:10:22.724Z,6.63
2018-07-20T04:12:51.002Z,6.60
2018-07-20T04:15:19.268Z,6.40
2018-07-20T04:17:47.568Z,7.87
2018-07-20T04:20:16.430Z,6.10
2018-07-20T04:22:44.882Z,6.50
2018-07-20T04:25:13.178Z,6.70
2018-07-20T04:27:41.433Z,7.40
2018-07-20T04:30:11.877Z,6.20
2018-07-20T04:32:40.138Z,6.43
2018-07-20T04:35:09.158Z,6.77
2018-07-20T04:37:37.456Z,6.30
2018-07-20T04:40:06.098Z,6.00
2018-07-20T04:42:34.819Z,6.50
2018-07-20T04:45:03.262Z,5.77
2018-07-20T04:47:31.516Z,6.97
2018-07-20T04:49:59.779Z,7.40
2018-07-20T04:52:28.034Z,5.93
2018-07-20T04:54:56.341Z,6.87
2018-07-20T04:57:24.717Z,6.90
2018-07-20T04:59:52.981Z,5.93
2018-07-20T05:02:21.226Z,5.07
2018-07-20T05:04:49.457Z,6.77
2018-07-20T05:07:17.662Z,6.87
2018-07-20T05:09:45.959Z,6.40
2018-07-20T05:12:14.213Z,7.07
2018-07-20T05:14:42.430Z,5.77
2018-07-20T05:17:10.717Z,5.93
2018-07-20T05:19:38.940Z,6.80
2018-07-20T05:22:07.466Z,6.37
2018-07-20T05:24:35.684Z,7.13
2018-07-20T05:27:03.985Z,7.30
2018-07-20T05:29:32.311Z,6.30
2018-07-20T05:32:00.544Z,6.93
2018-07-20T05:34:28.776Z,6.13
2018-07-20T05:36:56.988Z,6.37
2018-07-20T05:39:25.280Z,6.50
2018-07-20T05:41:53.491Z,5.87
2018-07-20T05:44:22.406Z,7.07
2018-07-20T05:46:50.772Z,5.83
2018-07-20T05:49:19.016Z,6.07
2018-07-20T05:51:47.252Z,7.17
2018-07-20T05:54:15.461Z,6.37
2018-07-20T05:56:43.705Z,6.10
2018-07-20T05:59:12.133Z,6.37
2018-07-20T06:01:40.348Z,7.10
2018-07-20T06:04:08.677Z,6.70
2018-07-20T06:06:36.945Z,5.87
2018-07-20T06:09:09.470Z,5.47
2018-07-20T06:11:37.842Z,6.30
2018-07-20T06:14:06.283Z,5.80
2018-07-20T06:16:34.515Z,5.97
2018-07-20T06:19:02.984Z,6.50
2018-07-20T06:21:31.285Z,6.00
2018-07-20T06:23:59.472Z,6.00
2018-07-20T06:26:27.730Z,5.70
2018-07-20T06:28:55.736Z,5.60
2018-07-20T06:31:23.993Z,5.80
2018-07-20T06:33:52.251Z,6.03
2018-07-20T06:36:20.473Z,5.10
2018-07-20T06:38:48.782Z,5.17
2018-07-20T06:41:17.061Z,5.67
2018-07-20T06:43:45.330Z,6.50
2018-07-20T06:46:13.617Z,5.10
2018-07-20T06:48:41.906Z,4.70
2018-07-20T06:51:10.266Z,5.57
2018-07-20T06:53:38.501Z,4.50
2018-07-20T06:56:06.769Z,5.00
2018-07-20T06:58:34.986Z,5.07
2018-07-20T07:01:03.333Z,5.30
2018-07-20T07:03:31.574Z,4.40
2018-07-20T07:05:59.769Z,4.67
2018-07-20T07:08:28.007Z,5.17
2018-07-20T07:10:56.222Z,5.10
2018-07-20T07:13:24.529Z,4.30
2018-07-20T07:15:52.867Z,4.90
2018-07-20T07:18:21.070Z,5.10
2018-07-20T07:20:49.348Z,5.20
2018-07-20T07:23:17.573Z,4.37
2018-07-20T07:25:45.838Z,5.90
2018-07-20T07:28:14.067Z,4.83
2018-07-20T07:30:42.268Z,5.47
2018-07-20T07:33:10.618Z,5.93
2018-07-20T07:35:38.876Z,5.60
2018-07-20T07:38:07.085Z,5.53
2018-07-20T07:40:35.326Z,5.17
2018-07-20T07:43:03.613Z,5.20
2018-07-20T07:45:31.854Z,5.10
2018-07-20T07:48:00.153Z,4.73
2018-07-20T07:50:28.449Z,3.90
2018-07-20T07:52:56.764Z,4.70
2018-07-20T07:55:24.979Z,4.60
2018-07-20T07:57:53.795Z,5.20
2018-07-20T08:00:22.033Z,4.80
2018-07-20T08:02:50.283Z,4.70
2018-07-20T08:05:19.170Z,4.77
2018-07-20T08:07:47.432Z,3.90
2018-07-20T08:10:15.711Z,4.47
2018-07-20T08:12:43.930Z,4.40
2018-07-20T08:15:12.196Z,4.47
2018-07-20T08:17:40.452Z,4.80
2018-07-20T08:20:08.778Z,4.60
2018-07-20T08:22:37.022Z,4.30
2018-07-20T08:25:05.271Z,4.23
2018-07-20T08:27:33.692Z,4.43
2018-07-20T08:30:01.921Z,4.40
2018-07-20T08:32:30.144Z,3.83
2018-07-20T08:34:58.411Z,4.27
2018-07-20T08:37:26.765Z,4.87
2018-07-20T08:39:55.035Z,4.30
2018-07-20T08:42:23.249Z,4.30
2018-07-20T08:44:51.533Z,4.43
2018-07-20T08:47:19.821Z,4.20
2018-07-20T08:49:48.226Z,4.33
2018-07-20T08:52:16.575Z,4.00
2018-07-20T08:54:44.801Z,4.30
2018-07-20T08:57:13.035Z,3.67
2018-07-20T08:59:41.245Z,3.80
2018-07-20T09:02:09.710Z,3.80
2018-07-20T09:04:38.134Z,4.30
2018-07-20T09:07:06.422Z,3.33
2018-07-20T09:09:34.741Z,3.50
2018-07-20T09:12:03.030Z,3.43
2018-07-20T09:14:32.585Z,3.60
2018-07-20T09:17:00.884Z,3.30
2018-07-20T09:19:29.166Z,3.67
2018-07-20T09:21:57.474Z,4.20
2018-07-20T09:24:25.730Z,3.17
2018-07-20T09:26:53.994Z,2.80
2018-07-20T09:29:22.277Z,3.20
2018-07-20T09:31:50.532Z,3.63
2018-07-20T09:34:18.723Z,3.23
2018-07-20T09:36:47.011Z,3.30
2018-07-20T09:39:15.318Z,3.00
2018-07-20T09:41:43.710Z,3.17
2018-07-20T09:44:11.989Z,3.07
2018-07-20T09:46:40.246Z,3.20
2018-07-20T09:49:08.553Z,3.40
2018-07-20T09:51:36.832Z,3.43
2018-07-20T09:54:05.153Z,2.90
2018-07-20T09:56:33.461Z,2.97
2018-07-20T09:59:01.768Z,3.20
2018-07-20T10:01:30.049Z,3.30
2018-07-20T10:03:58.311Z,2.87
2018-07-20T10:06:26.539Z,3.00
2018-07-20T10:08:54.801Z,2.93
2018-07-20T10:11:23.102Z,3.20
2018-07-20T10:13:51.346Z,2.77
2018-07-20T10:16:19.717Z,2.87
2018-07-20T10:18:47.925Z,3.83
2018-07-20T10:21:16.182Z,3.20
2018-07-20T10:23:44.615Z,3.70
2018-07-20T10:26:12.809Z,2.90
2018-07-20T10:28:41.065Z,3.87
2018-07-20T10:31:09.289Z,3.80
2018-07-20T10:33:37.525Z,3.10
2018-07-20T10:36:05.762Z,3.77
2018-07-20T10:38:33.986Z,3.30
2018-07-20T10:41:02.183Z,3.67
2018-07-20T10:43:30.426Z,3.53
2018-07-20T10:45:58.637Z,3.87
2018-07-20T10:48:26.881Z,4.27
2018-07-20T10:50:55.087Z,3.10
2018-07-20T10:53:23.343Z,3.30
2018-07-20T10:55:51.629Z,3.27
2018-07-20T10:58:19.905Z,3.40
2018-07-20T11:00:48.175Z,3.63
2018-07-20T11:03:16.492Z,3.33
2018-07-20T11:05:44.776Z,4.00
2018-07-20T11:08:13.070Z,3.50
2018-07-20T11:10:41.339Z,3.43
2018-07-20T11:13:09.562Z,3.87
2018-07-20T11:15:37.801Z,3.57
2018-07-20T11:18:06.070Z,2.90
2018-07-20T11:20:34.348Z,3.73
2018-07-20T11:23:02.595Z,3.20
2018-07-20T11:25:30.829Z,3.67
2018-07-20T11:27:59.151Z,3.40
2018-07-20T11:30:27.626Z,4.60
2018-07-20T11:32:55.945Z,3.77
2018-07-20T11:35:24.171Z,3.37
2018-07-20T11:37:52.433Z,4.27
2018-07-20T11:40:20.690Z,3.53
2018-07-20T11:42:48.988Z,4.23
2018-07-20T11:45:17.009Z,4.37
2018-07-20T11:47:45.429Z,3.30
2018-07-20T11:50:13.686Z,3.97
2018-07-20T11:52:41.945Z,3.30
2018-07-20T11:55:10.159Z,3.57
2018-07-20T11:57:38.478Z,3.60
2018-07-20T12:00:06.773Z,3.50
2018-07-20T12:02:35.052Z,3.50
2018-07-20T12:05:03.419Z,3.40
2018-07-20T12:07:31.653Z,4.07
2018-07-20T12:09:59.969Z,4.07
2018-07-20T12:12:28.203Z,3.73
2018-07-20T12:14:56.457Z,3.87
2018-07-20T12:17:24.726Z,3.37
2018-07-20T12:19:52.958Z,3.47
2018-07-20T12:22:21.227Z,3.63
2018-07-20T12:24:49.437Z,3.87
2018-07-20T12:27:17.710Z,4.03
2018-07-20T12:29:46.113Z,3.60
2018-07-20T12:32:14.397Z,3.90
2018-07-20T12:34:42.682Z,3.70
2018-07-20T12:37:10.904Z,3.10
2018-07-20T12:39:39.181Z,3.20
2018-07-20T12:42:07.459Z,3.47
2018-07-20T12:44:35.764Z,3.70
2018-07-20T12:47:04.063Z,4.13
2018-07-20T12:49:32.305Z,3.53
2018-07-20T12:52:00.627Z,3.53
2018-07-20T12:54:28.894Z,4.20
2018-07-20T12:56:57.153Z,4.60
2018-07-20T12:59:25.508Z,3.93
2018-07-20T13:01:53.789Z,4.00
2018-07-20T13:04:22.080Z,3.60
2018-07-20T13:06:50.370Z,4.30
2018-07-20T13:09:18.617Z,4.30
2018-07-20T13:11:46.957Z,3.60
2018-07-20T13:14:15.175Z,3.77
2018-07-20T13:16:43.450Z,3.90
2018-07-20T13:19:11.733Z,3.30
2018-07-20T13:21:40.060Z,3.43
2018-07-20T13:24:08.301Z,4.27
2018-07-20T13:26:36.766Z,4.70
2018-07-20T13:29:05.158Z,3.93
2018-07-20T13:31:33.348Z,3.70
2018-07-20T13:34:01.545Z,3.37
2018-07-20T13:36:29.530Z,3.50
2018-07-20T13:38:57.733Z,3.50
2018-07-20T13:41:25.965Z,3.50
2018-07-20T13:43:54.578Z,4.60
2018-07-20T13:46:22.861Z,3.47
2018-07-20T13:48:51.155Z,3.50
2018-07-20T13:51:19.350Z,3.90
2018-07-20T13:53:47.565Z,3.77
2018-07-20T13:56:15.833Z,4.23
2018-07-20T13:58:44.101Z,3.97
2018-07-20T14:01:12.357Z,3.97
2018-07-20T14:03:40.537Z,4.00
2018-07-20T14:06:08.792Z,3.43
2018-07-20T14:08:36.963Z,3.97
2018-07-20T14:11:05.350Z,3.70
2018-07-20T14:13:33.616Z,4.03
2018-07-20T14:16:01.914Z,3.60
2018-07-20T14:18:30.148Z,3.87
2018-07-20T14:20:58.382Z,3.60
2018-07-20T14:23:26.599Z,4.07
2018-07-20T14:25:54.825Z,3.70
2018-07-20T14:28:23.064Z,4.67
2018-07-20T14:30:51.329Z,4.23
2018-07-20T14:33:19.570Z,3.53
2018-07-20T14:35:47.803Z,4.70
2018-07-20T14:38:16.028Z,4.40
2018-07-20T14:40:44.197Z,4.10
2018-07-20T14:43:12.458Z,4.50
2018-07-20T14:45:40.694Z,11.60
2018-07-20T14:48:08.958Z,4.87
2018-07-20T14:50:37.229Z,5.70
2018-07-20T14:53:05.439Z,4.60
2018-07-20T14:55:33.734Z,3.63
2018-07-20T14:58:01.963Z,7.80
2018-07-20T15:00:30.233Z,5.10
2018-07-20T15:02:58.473Z,7.73
2018-07-20T15:05:26.701Z,7.50
2018-07-20T15:07:54.941Z,4.40
2018-07-20T15:10:23.151Z,7.77
2018-07-20T15:12:51.352Z,7.00
2018-07-20T15:15:19.614Z,4.63
2018-07-20T15:17:47.842Z,5.10
2018-07-20T15:20:16.062Z,4.93
2018-07-20T15:22:44.273Z,5.30
2018-07-20T15:25:12.484Z,4.50
2018-07-20T15:27:40.720Z,4.47
2018-07-20T15:30:15.110Z,4.40
2018-07-20T15:32:49.726Z,4.70
2018-07-20T15:35:18.080Z,4.40
2018-07-20T15:37:46.298Z,4.43
2018-07-20T15:40:14.465Z,4.50
2018-07-20T15:42:42.691Z,3.90
2018-07-20T15:45:10.876Z,4.43
2018-07-20T15:47:39.151Z,3.80
2018-07-20T15:50:07.569Z,4.73
2018-07-20T15:55:04.107Z,4.10
2018-07-20T15:57:32.343Z,4.67
2018-07-20T16:00:00.904Z,4.40
2018-07-20T16:02:29.161Z,3.70
2018-07-20T16:04:57.422Z,4.20
2018-07-20T16:07:25.779Z,4.60
2018-07-20T16:09:54.009Z,4.40
2018-07-20T16:12:22.288Z,4.60
2018-07-20T16:14:50.542Z,4.67
2018-07-20T16:17:18.773Z,5.70
2018-07-20T16:19:46.981Z,4.00
2018-07-20T16:22:15.166Z,4.70
2018-07-20T16:24:43.561Z,5.80
2018-07-20T16:27:11.830Z,4.43
2018-07-20T16:29:40.022Z,4.10
2018-07-20T16:32:08.264Z,4.43
2018-07-20T16:34:36.501Z,4.30
2018-07-20T16:37:05.061Z,4.20
2018-07-20T16:39:33.298Z,4.17
2018-07-20T16:42:01.514Z,4.60
2018-07-20T16:44:29.788Z,3.73
2018-07-20T16:46:58.026Z,4.73
2018-07-20T16:49:26.261Z,3.97
2018-07-20T16:51:54.579Z,4.60
2018-07-20T16:54:22.789Z,4.10
2018-07-20T16:56:51.109Z,4.17
2018-07-20T16:59:19.655Z,4.40
2018-07-20T17:01:47.936Z,4.43
2018-07-20T17:04:16.178Z,4.27
2018-07-20T17:06:44.369Z,4.23
2018-07-20T17:09:12.664Z,4.10
2018-07-20T17:11:41.105Z,4.50
2018-07-20T17:14:09.366Z,4.40
2018-07-20T17:16:37.620Z,4.37
2018-07-20T17:19:05.898Z,4.57
2018-07-20T17:21:34.291Z,4.30
2018-07-20T17:24:02.512Z,4.20
2018-07-20T17:26:30.767Z,4.40
2018-07-20T17:28:59.058Z,4.67
2018-07-20T17:31:27.241Z,4.20
2018-07-20T17:33:55.456Z,4.73
2018-07-20T17:36:23.627Z,3.93
2018-07-20T17:38:51.840Z,4.77
2018-07-20T17:41:20.040Z,4.53
2018-07-20T17:43:47.983Z,5.00
2018-07-20T17:46:16.242Z,4.67
2018-07-20T17:48:44.424Z,4.83
2018-07-20T17:51:12.632Z,4.37
2018-07-20T17:53:40.849Z,5.10
2018-07-20T17:56:09.063Z,6.80
2018-07-20T17:58:37.327Z,4.70
2018-07-20T18:01:05.839Z,5.00
2018-07-20T18:03:34.076Z,6.10
2018-07-20T18:06:02.310Z,5.67
2018-07-20T18:08:30.513Z,5.20
2018-07-20T18:10:58.681Z,5.43
2018-07-20T18:13:26.937Z,5.43
2018-07-20T18:15:55.107Z,4.50
2018-07-20T18:18:23.321Z,4.57
2018-07-20T18:20:51.997Z,5.37
2018-07-20T18:23:20.239Z,4.67
2018-07-20T18:25:48.720Z,5.10
2018-07-20T18:28:17.089Z,5.00
2018-07-20T18:30:46.198Z,5.77
2018-07-20T18:33:14.573Z,6.07
2018-07-20T18:35:43.790Z,5.30
2018-07-20T18:38:12.110Z,4.63
2018-07-20T18:40:40.345Z,4.90
2018-07-20T18:43:08.588Z,5.50
2018-07-20T18:45:36.817Z,6.00
2018-07-20T18:48:05.161Z,5.20
2018-07-20T18:50:33.413Z,5.10
2018-07-20T18:53:01.679Z,5.33
2018-07-20T18:55:29.980Z,5.97
2018-07-20T18:57:58.217Z,5.03
2018-07-20T19:00:26.613Z,6.20
2018-07-20T19:02:54.927Z,6.13
2018-07-20T19:05:23.405Z,6.57
2018-07-20T19:07:51.661Z,8.13
2018-07-20T19:10:19.900Z,7.97
2018-07-20T19:12:48.497Z,7.27
2018-07-20T19:15:16.710Z,6.13
2018-07-20T19:17:45.841Z,7.23
2018-07-20T19:20:14.053Z,6.93
2018-07-20T19:22:42.596Z,5.90
2018-07-20T19:25:10.809Z,5.73
2018-07-20T19:27:39.009Z,6.30
2018-07-20T19:30:07.797Z,5.23
2018-07-20T19:32:36.637Z,5.33
2018-07-20T19:35:04.937Z,6.10
2018-07-20T19:37:33.165Z,6.60
2018-07-20T19:40:01.382Z,6.20
2018-07-20T19:42:29.573Z,5.70
2018-07-20T19:44:57.921Z,5.80
2018-07-20T19:47:26.277Z,6.33
2018-07-20T19:49:54.521Z,6.30
2018-07-20T19:52:22.726Z,6.30
2018-07-20T19:54:50.951Z,5.67
2018-07-20T19:57:19.252Z,6.13
2018-07-20T19:59:47.416Z,5.40
2018-07-20T20:02:15.672Z,6.30
2018-07-20T20:04:43.917Z,6.13
2018-07-20T20:07:14.845Z,5.30
2018-07-20T20:09:42.958Z,6.40
2018-07-20T20:12:11.215Z,6.60
2018-07-20T20:14:39.433Z,6.77
2018-07-20T20:17:07.648Z,7.47
2018-07-20T20:19:35.874Z,6.63
2018-07-20T20:22:04.097Z,7.63
2018-07-20T20:24:32.398Z,6.50
2018-07-20T20:27:00.656Z,7.00
2018-07-20T20:29:28.896Z,7.73
2018-07-20T20:31:56.861Z,7.13
2018-07-20T20:34:25.198Z,7.23
2018-07-20T20:36:54.056Z,6.97
2018-07-20T20:39:22.385Z,6.50
2018-07-20T20:41:50.644Z,6.63
2018-07-20T20:44:18.975Z,7.60
2018-07-20T20:46:47.172Z,8.10
2018-07-20T20:49:17.109Z,8.43
2018-07-20T20:51:45.752Z,8.07
2018-07-20T20:54:14.159Z,9.10
2018-07-20T20:56:42.525Z,8.13
2018-07-20T20:59:11.111Z,7.27
2018-07-20T21:01:39.359Z,7.20
2018-07-20T21:04:07.590Z,7.50
2018-07-20T21:06:35.924Z,7.90
2018-07-20T21:09:06.609Z,7.03
2018-07-20T21:11:35.383Z,7.67
2018-07-20T21:14:03.896Z,7.17
2018-07-20T21:16:32.216Z,8.20
2018-07-20T21:19:00.481Z,7.20
2018-07-20T21:21:28.798Z,7.33
2018-07-20T21:23:57.012Z,7.50
2018-07-20T21:26:25.268Z,7.00
2018-07-20T21:28:55.197Z,6.00
2018-07-20T21:31:23.537Z,6.30
2018-07-20T21:33:51.790Z,6.20
2018-07-20T21:36:20.029Z,8.13
2018-07-20T21:38:49.312Z,7.50
2018-07-20T21:41:17.528Z,8.07
2018-07-20T21:43:45.846Z,8.33
2018-07-20T21:46:14.037Z,8.67
2018-07-20T21:48:42.301Z,8.77
2018-07-20T21:51:10.520Z,8.87
2018-07-20T21:53:38.685Z,9.10
2018-07-20T21:56:07.087Z,8.30
2018-07-20T21:58:35.293Z,7.73
2018-07-20T22:01:03.695Z,8.37
2018-07-20T22:03:31.907Z,8.70
2018-07-20T22:06:00.069Z,8.57
2018-07-20T22:08:28.339Z,7.40
2018-07-20T22:10:56.546Z,7.73
2018-07-20T22:13:24.734Z,8.83
2018-07-20T22:15:52.973Z,8.53
2018-07-20T22:18:21.177Z,8.30
2018-07-20T22:20:50.317Z,9.07
2018-07-20T22:23:18.556Z,8.57
2018-07-20T22:25:46.769Z,8.90
2018-07-20T22:28:14.929Z,9.40
2018-07-20T22:30:43.138Z,9.60
2018-07-20T22:33:11.345Z,9.17
2018-07-20T22:35:39.513Z,10.20
2018-07-20T22:38:07.704Z,10.17
2018-07-20T22:40:35.864Z,8.50
2018-07-20T22:43:04.116Z,9.70
2018-07-20T22:45:32.308Z,10.30
2018-07-20T22:48:00.514Z,9.07
2018-07-20T22:50:28.721Z,10.03
2018-07-20T22:52:56.915Z,9.10
2018-07-20T22:55:25.113Z,10.10
2018-07-20T22:57:53.337Z,9.97
2018-07-20T23:00:21.547Z,10.53
2018-07-20T23:02:49.707Z,8.67
2018-07-20T23:05:17.984Z,9.00
2018-07-20T23:07:46.175Z,8.80
2018-07-20T23:10:14.388Z,8.17
2018-07-20T23:12:42.613Z,8.57
2018-07-20T23:15:10.829Z,8.00
2018-07-20T23:17:39.077Z,8.70
2018-07-20T23:20:07.305Z,8.77
2018-07-20T23:22:35.481Z,9.40
2018-07-20T23:25:03.981Z,8.13
2018-07-20T23:27:32.202Z,8.50
2018-07-20T23:30:00.385Z,9.00
2018-07-20T23:32:28.575Z,9.13
2018-07-20T23:34:56.752Z,8.37
2018-07-20T23:37:24.956Z,8.83
2018-07-20T23:39:53.177Z,9.33
2018-07-20T23:42:21.385Z,8.00
2018-07-20T23:44:49.604Z,8.17
2018-07-20T23:47:17.759Z,8.53
2018-07-20T23:49:46.012Z,7.63
2018-07-20T23:52:14.188Z,7.77
2018-07-20T23:54:42.549Z,7.63
2018-07-20T23:57:10.776Z,8.07
2018-07-20T23:59:38.994Z,7.93
